Time;durP1;ratioP1;P1;durP2;ratioP2;P2;SDS_P1;SDS_P2;PMS_P1;PMS_P2;Temp;Humidity;BMP_temperature;BMP_pressure;BME280_temperature;BME280_humidity;BME280_pressure;Samples;Min_cycle;Max_cycle;Signal;HPM_P1;HPM_P2
2021/01/02 00:00:56;;;;;;;80.35;32.75;;;;;;;;;;5045864;28;20195;-61
2021/01/02 00:03:54;;;;;;;79.53;33.65;;;;;;;;;;5036565;28;20048;-61
2021/01/02 00:06:31;;;;;;;86.53;34.67;;;;;;;;;;4999031;28;20922;-61
2021/01/02 00:09:06;;;;;;;81.72;34.20;;;;;;;;;;5019711;28;20323;-61
2021/01/02 00:11:51;;;;;;;84.57;35.45;;;;;;;;;;5039843;28;20036;-60
2021/01/02 00:14:34;;;;;;;87.60;35.70;;;;;;;;;;5040339;28;20581;-61
2021/01/02 00:17:18;;;;;;;75.68;32.38;;;;;;;;;;5041597;28;20045;-61
2021/01/02 00:20:03;;;;;;;86.47;34.63;;;;;;;;;;5042081;28;20557;-61
2021/01/02 00:22:34;;;;;;;90.20;34.75;;;;;;;;;;5044104;28;20039;-61
2021/01/02 00:25:05;;;;;;;87.25;33.10;;;;;;;;;;5021892;28;20111;-61
2021/01/02 00:27:50;;;;;;;84.88;34.45;;;;;;;;;;5040174;28;20076;-61
2021/01/02 00:30:42;;;;;;;89.63;35.25;;;;;;;;;;5046039;28;20028;-61
2021/01/02 00:33:18;;;;;;;89.47;35.03;;;;;;;;;;5011126;28;20124;-61
2021/01/02 00:35:47;;;;;;;90.03;35.22;;;;;;;;;;5030450;28;20768;-61
2021/01/02 00:38:14;;;;;;;83.38;35.67;;;;;;;;;;5043089;28;20443;-61
2021/01/02 00:40:40;;;;;;;85.03;34.75;;;;;;;;;;5020204;28;20039;-61
2021/01/02 00:43:06;;;;;;;87.35;34.90;;;;;;;;;;5044310;28;20072;-61
2021/01/02 00:45:33;;;;;;;86.95;34.75;;;;;;;;;;5019802;28;20041;-61
2021/01/02 00:48:01;;;;;;;85.60;35.20;;;;;;;;;;5037087;28;20370;-61
2021/01/02 00:50:28;;;;;;;84.30;33.67;;;;;;;;;;5020427;28;20386;-61
2021/01/02 00:53:00;;;;;;;89.70;34.72;;;;;;;;;;5045252;28;20040;-61
2021/01/02 00:55:26;;;;;;;83.05;33.95;;;;;;;;;;5043889;28;20629;-61
2021/01/02 00:58:10;;;;;;;88.13;34.70;;;;;;;;;;5035438;28;20056;-61
2021/01/02 01:00:37;;;;;;;91.93;35.28;;;;;;;;;;5038091;28;20036;-60
2021/01/02 01:03:03;;;;;;;88.78;34.15;;;;;;;;;;5036859;28;20408;-61
2021/01/02 01:05:31;;;;;;;86.00;34.00;;;;;;;;;;5029826;28;20043;-61
2021/01/02 01:07:58;;;;;;;94.53;34.95;;;;;;;;;;5043018;28;20134;-61
2021/01/02 01:10:25;;;;;;;96.03;36.92;;;;;;;;;;5045680;28;20032;-60
2021/01/02 01:12:54;;;;;;;90.40;35.70;;;;;;;;;;5031733;28;20044;-60
2021/01/02 01:15:21;;;;;;;93.72;35.58;;;;;;;;;;5012929;28;20501;-61
2021/01/02 01:18:13;;;;;;;87.70;33.88;;;;;;;;;;5036416;28;20524;-61
2021/01/02 01:20:43;;;;;;;85.90;34.38;;;;;;;;;;5029293;28;20032;-60
2021/01/02 01:23:10;;;;;;;96.47;36.10;;;;;;;;;;5036898;28;20790;-60
2021/01/02 01:25:43;;;;;;;97.90;35.30;;;;;;;;;;5016832;28;20062;-60
2021/01/02 01:28:10;;;;;;;87.80;35.83;;;;;;;;;;5037185;28;20047;-60
2021/01/02 01:30:39;;;;;;;91.93;35.92;;;;;;;;;;5023551;28;20059;-61
2021/01/02 01:33:08;;;;;;;97.30;36.67;;;;;;;;;;5034874;28;20135;-61
2021/01/02 01:35:37;;;;;;;93.45;35.88;;;;;;;;;;5032811;28;20472;-60
2021/01/02 01:38:07;;;;;;;94.70;35.10;;;;;;;;;;5044522;28;20469;-60
2021/01/02 01:40:36;;;;;;;91.13;35.67;;;;;;;;;;5051782;28;20113;-60
2021/01/02 01:43:06;;;;;;;98.38;36.75;;;;;;;;;;5041830;28;20039;-60
2021/01/02 01:45:38;;;;;;;100.78;35.60;;;;;;;;;;5042739;28;20029;-61
2021/01/02 01:48:05;;;;;;;94.50;35.90;;;;;;;;;;5044227;28;20098;-60
2021/01/02 01:50:46;;;;;;;95.50;35.53;;;;;;;;;;5038331;28;20612;-61
2021/01/02 01:53:31;;;;;;;91.72;35.75;;;;;;;;;;5045658;28;20041;-60
2021/01/02 01:55:59;;;;;;;92.35;36.50;;;;;;;;;;5039956;28;20033;-61
2021/01/02 01:58:37;;;;;;;84.35;34.28;;;;;;;;;;5017992;28;20048;-60
2021/01/02 02:01:04;;;;;;;98.47;36.90;;;;;;;;;;5044446;28;20877;-60
2021/01/02 02:03:35;;;;;;;91.47;36.10;;;;;;;;;;5033103;28;20036;-61
2021/01/02 02:06:03;;;;;;;89.55;36.20;;;;;;;;;;5040244;28;20036;-61
2021/01/02 02:08:40;;;;;;;100.25;37.83;;;;;;;;;;5041337;28;20048;-60
2021/01/02 02:11:06;;;;;;;95.75;37.13;;;;;;;;;;5022410;28;20043;-61
2021/01/02 02:13:33;;;;;;;101.78;36.67;;;;;;;;;;5040903;28;20449;-61
2021/01/02 02:16:00;;;;;;;110.95;38.70;;;;;;;;;;5036796;28;20131;-61
2021/01/02 02:18:30;;;;;;;102.70;38.45;;;;;;;;;;5038474;28;20048;-60
2021/01/02 02:21:00;;;;;;;107.95;38.17;;;;;;;;;;5032425;28;20047;-60
2021/01/02 02:23:40;;;;;;;93.05;36.28;;;;;;;;;;5042956;28;20528;-61
2021/01/02 02:26:07;;;;;;;107.75;37.83;;;;;;;;;;5032247;28;20055;-61
2021/01/02 02:28:33;;;;;;;102.40;37.28;;;;;;;;;;5045345;28;20036;-61
2021/01/02 02:31:09;;;;;;;95.50;36.40;;;;;;;;;;5023618;28;20043;-61
2021/01/02 02:33:36;;;;;;;99.28;36.75;;;;;;;;;;5050535;28;20055;-61
2021/01/02 02:36:05;;;;;;;102.45;37.33;;;;;;;;;;5043477;28;20074;-61
2021/01/02 02:38:38;;;;;;;97.40;38.05;;;;;;;;;;5035378;28;20037;-61
2021/01/02 02:41:06;;;;;;;101.68;36.88;;;;;;;;;;5033798;28;20047;-61
2021/01/02 02:43:33;;;;;;;101.05;39.22;;;;;;;;;;5035281;28;20042;-61
2021/01/02 02:45:59;;;;;;;111.50;40.03;;;;;;;;;;5036647;28;20082;-60
2021/01/02 02:48:25;;;;;;;101.35;38.72;;;;;;;;;;5041154;28;20444;-60
2021/01/02 02:50:53;;;;;;;100.20;38.45;;;;;;;;;;5039967;28;20114;-61
2021/01/02 02:53:19;;;;;;;107.20;38.47;;;;;;;;;;5054402;28;20133;-61
2021/01/02 02:55:46;;;;;;;104.13;38.53;;;;;;;;;;5040862;28;20294;-60
2021/01/02 02:58:13;;;;;;;100.28;36.80;;;;;;;;;;5036239;28;20039;-61
2021/01/02 03:00:39;;;;;;;101.43;38.40;;;;;;;;;;5042547;28;20051;-61
2021/01/02 03:03:10;;;;;;;106.43;38.78;;;;;;;;;;5039288;28;20064;-61
2021/01/02 03:05:38;;;;;;;108.95;38.45;;;;;;;;;;5035869;28;20040;-60
2021/01/02 03:08:04;;;;;;;103.03;38.65;;;;;;;;;;5036367;28;20117;-61
2021/01/02 03:10:30;;;;;;;101.60;39.50;;;;;;;;;;5037006;28;20048;-61
2021/01/02 03:12:56;;;;;;;109.47;37.28;;;;;;;;;;5039598;28;20460;-61
2021/01/02 03:15:26;;;;;;;105.05;39.45;;;;;;;;;;5035822;28;20396;-61
2021/01/02 03:17:52;;;;;;;105.25;38.95;;;;;;;;;;5044365;28;20504;-61
2021/01/02 03:20:19;;;;;;;97.68;38.33;;;;;;;;;;5037036;28;20036;-61
2021/01/02 03:22:46;;;;;;;107.47;38.95;;;;;;;;;;5013649;28;20037;-61
2021/01/02 03:25:13;;;;;;;98.90;38.45;;;;;;;;;;5037125;28;20175;-61
2021/01/02 03:27:39;;;;;;;104.72;39.55;;;;;;;;;;5041183;28;20044;-61
2021/01/02 03:30:08;;;;;;;96.43;36.42;;;;;;;;;;5040136;28;20097;-61
2021/01/02 03:32:34;;;;;;;102.32;38.75;;;;;;;;;;5021173;28;20139;-61
2021/01/02 03:35:00;;;;;;;97.07;39.00;;;;;;;;;;5032753;28;20147;-61
2021/01/02 03:37:26;;;;;;;93.90;38.25;;;;;;;;;;5035653;28;20054;-61
2021/01/02 03:39:52;;;;;;;104.05;37.72;;;;;;;;;;5036200;28;20033;-61
2021/01/02 03:42:18;;;;;;;87.35;36.53;;;;;;;;;;5041589;28;20115;-61
2021/01/02 03:44:44;;;;;;;98.82;36.35;;;;;;;;;;5035295;28;20086;-61
2021/01/02 03:47:10;;;;;;;94.43;38.13;;;;;;;;;;5033455;28;20041;-61
2021/01/02 03:49:37;;;;;;;90.43;36.45;;;;;;;;;;5038198;28;20151;-61
2021/01/02 03:52:04;;;;;;;103.82;38.13;;;;;;;;;;5039138;28;20041;-61
2021/01/02 03:54:30;;;;;;;93.97;37.50;;;;;;;;;;5034350;28;20407;-61
2021/01/02 03:56:56;;;;;;;99.53;37.22;;;;;;;;;;5036833;28;21810;-60
2021/01/02 03:59:22;;;;;;;91.45;37.00;;;;;;;;;;5039462;28;20070;-61
2021/01/02 04:01:55;;;;;;;97.50;36.90;;;;;;;;;;5023795;28;20040;-61
2021/01/02 04:04:22;;;;;;;99.68;36.80;;;;;;;;;;5038465;28;20047;-60
2021/01/02 04:06:48;;;;;;;91.65;36.95;;;;;;;;;;5045901;28;20518;-60
2021/01/02 04:09:14;;;;;;;93.15;35.65;;;;;;;;;;5039199;28;20037;-61
2021/01/02 04:11:41;;;;;;;89.28;36.88;;;;;;;;;;5046884;28;20489;-61
2021/01/02 04:14:08;;;;;;;91.60;35.90;;;;;;;;;;5041454;28;20381;-60
2021/01/02 04:16:34;;;;;;;83.53;34.85;;;;;;;;;;5031952;28;21123;-60
2021/01/02 04:19:00;;;;;;;91.32;35.10;;;;;;;;;;5035903;28;20086;-60
2021/01/02 04:21:26;;;;;;;87.70;36.63;;;;;;;;;;5041982;28;20120;-61
2021/01/02 04:23:52;;;;;;;97.45;36.22;;;;;;;;;;5040744;28;20059;-61
2021/01/02 04:26:19;;;;;;;84.78;35.03;;;;;;;;;;5027759;28;20126;-60
2021/01/02 04:28:45;;;;;;;89.43;34.35;;;;;;;;;;5034705;28;20036;-60
2021/01/02 04:31:11;;;;;;;84.05;33.92;;;;;;;;;;5037889;28;20036;-60
2021/01/02 04:33:37;;;;;;;97.03;36.92;;;;;;;;;;5034638;28;20044;-60
2021/01/02 04:36:03;;;;;;;92.05;36.00;;;;;;;;;;5013304;28;20045;-60
2021/01/02 04:38:29;;;;;;;85.80;34.70;;;;;;;;;;5041208;28;20041;-60
2021/01/02 04:40:59;;;;;;;84.13;33.28;;;;;;;;;;5037994;28;20067;-60
2021/01/02 04:43:25;;;;;;;86.20;34.72;;;;;;;;;;5050157;28;20041;-60
2021/01/02 04:45:52;;;;;;;91.80;34.33;;;;;;;;;;5038291;28;21908;-60
2021/01/02 04:48:18;;;;;;;81.25;35.20;;;;;;;;;;5038795;28;20032;-60
2021/01/02 04:50:46;;;;;;;91.15;35.08;;;;;;;;;;5045300;28;20029;-60
2021/01/02 04:53:13;;;;;;;85.32;34.92;;;;;;;;;;5041960;28;20052;-60
2021/01/02 04:55:40;;;;;;;92.57;35.20;;;;;;;;;;5039856;28;20036;-60
2021/01/02 04:58:07;;;;;;;87.03;33.78;;;;;;;;;;5035426;28;20036;-60
2021/01/02 05:00:37;;;;;;;85.72;35.03;;;;;;;;;;5040542;28;20119;-60
2021/01/02 05:03:04;;;;;;;74.60;32.20;;;;;;;;;;5036592;28;20029;-59
2021/01/02 05:05:30;;;;;;;83.95;34.13;;;;;;;;;;5041805;28;20060;-60
2021/01/02 05:07:56;;;;;;;87.82;34.17;;;;;;;;;;5033851;28;20040;-60
2021/01/02 05:10:21;;;;;;;83.22;33.78;;;;;;;;;;5036765;28;20040;-61
2021/01/02 05:12:48;;;;;;;86.40;34.25;;;;;;;;;;5039363;28;20151;-60
2021/01/02 05:15:15;;;;;;;82.10;35.03;;;;;;;;;;5034387;28;20898;-60
2021/01/02 05:17:41;;;;;;;87.82;33.28;;;;;;;;;;5039831;28;20424;-60
2021/01/02 05:20:07;;;;;;;78.72;33.97;;;;;;;;;;5048979;28;20534;-60
2021/01/02 05:22:34;;;;;;;86.20;33.72;;;;;;;;;;5047006;28;20554;-60
2021/01/02 05:25:17;;;;;;;88.93;33.53;;;;;;;;;;5030040;28;20122;-60
2021/01/02 05:27:44;;;;;;;79.50;32.67;;;;;;;;;;5050583;28;20103;-60
2021/01/02 05:30:20;;;;;;;88.22;33.05;;;;;;;;;;5040852;28;20032;-60
2021/01/02 05:32:54;;;;;;;82.30;34.08;;;;;;;;;;5022124;28;20049;-60
2021/01/02 05:35:21;;;;;;;88.82;34.80;;;;;;;;;;5037969;28;20044;-60
2021/01/02 05:37:48;;;;;;;82.97;33.35;;;;;;;;;;5028985;28;22938;-60
2021/01/02 05:40:32;;;;;;;81.05;33.83;;;;;;;;;;5041731;28;20124;-60
2021/01/02 05:42:58;;;;;;;87.00;32.55;;;;;;;;;;5037708;28;21839;-60
2021/01/02 05:45:27;;;;;;;78.10;32.33;;;;;;;;;;5043783;28;20093;-60
2021/01/02 05:47:55;;;;;;;92.88;34.35;;;;;;;;;;5040996;28;20044;-60
2021/01/02 05:50:22;;;;;;;88.80;35.08;;;;;;;;;;5040696;28;20121;-60
2021/01/02 05:52:49;;;;;;;91.72;33.38;;;;;;;;;;5035687;28;20052;-60
2021/01/02 05:55:35;;;;;;;87.50;33.85;;;;;;;;;;5041847;28;20033;-60
2021/01/02 05:58:15;;;;;;;82.25;32.10;;;;;;;;;;5039686;28;20033;-60
2021/01/02 06:00:43;;;;;;;79.68;31.30;;;;;;;;;;5025059;28;20028;-60
2021/01/02 06:03:21;;;;;;;93.63;32.58;;;;;;;;;;5038024;28;20515;-60
2021/01/02 06:06:03;;;;;;;88.10;32.55;;;;;;;;;;5045305;28;20060;-60
2021/01/02 06:08:33;;;;;;;84.60;33.30;;;;;;;;;;5048911;28;20055;-60
2021/01/02 06:11:01;;;;;;;91.80;32.25;;;;;;;;;;5035454;28;22277;-60
2021/01/02 06:13:31;;;;;;;83.15;31.42;;;;;;;;;;5046186;28;20037;-60
2021/01/02 06:15:58;;;;;;;83.78;31.60;;;;;;;;;;5038628;28;20032;-60
2021/01/02 06:18:24;;;;;;;85.20;30.70;;;;;;;;;;5040957;28;20136;-60
2021/01/02 06:20:51;;;;;;;88.28;31.27;;;;;;;;;;5038905;28;20051;-60
2021/01/02 06:23:20;;;;;;;79.47;31.70;;;;;;;;;;5043523;28;20397;-60
2021/01/02 06:25:47;;;;;;;88.22;31.80;;;;;;;;;;5040578;28;20425;-60
2021/01/02 06:28:14;;;;;;;84.97;30.65;;;;;;;;;;5042238;28;20048;-60
2021/01/02 06:30:40;;;;;;;91.97;31.40;;;;;;;;;;5037164;28;20033;-60
2021/01/02 06:33:06;;;;;;;77.30;30.92;;;;;;;;;;5049920;28;20039;-60
2021/01/02 06:35:39;;;;;;;87.40;33.67;;;;;;;;;;5038042;28;20040;-60
2021/01/02 06:38:05;;;;;;;94.63;33.58;;;;;;;;;;5042080;28;20040;-60
2021/01/02 06:40:37;;;;;;;91.50;32.22;;;;;;;;;;5044489;28;20043;-60
2021/01/02 06:43:11;;;;;;;85.88;32.80;;;;;;;;;;5041956;28;20401;-60
2021/01/02 06:45:41;;;;;;;92.18;32.85;;;;;;;;;;5019845;28;20043;-60
2021/01/02 06:48:16;;;;;;;92.72;32.85;;;;;;;;;;5040119;28;20409;-60
2021/01/02 06:50:43;;;;;;;89.30;32.22;;;;;;;;;;5037517;28;20036;-60
2021/01/02 06:53:19;;;;;;;88.13;31.63;;;;;;;;;;5032779;28;20037;-60
2021/01/02 06:55:45;;;;;;;96.05;31.92;;;;;;;;;;5036161;28;20041;-61
2021/01/02 06:58:15;;;;;;;88.40;32.13;;;;;;;;;;5037134;28;20237;-60
2021/01/02 07:00:41;;;;;;;98.75;31.73;;;;;;;;;;5037549;28;20124;-60
2021/01/02 07:03:10;;;;;;;87.05;31.08;;;;;;;;;;5032065;28;20437;-60
2021/01/02 07:05:49;;;;;;;82.13;30.58;;;;;;;;;;5038493;28;20124;-60
2021/01/02 07:08:34;;;;;;;81.05;30.13;;;;;;;;;;5036369;28;20104;-60
2021/01/02 07:11:18;;;;;;;81.88;29.20;;;;;;;;;;5033724;28;20040;-60
2021/01/02 07:13:44;;;;;;;76.88;30.00;;;;;;;;;;5033881;28;20045;-60
2021/01/02 07:16:28;;;;;;;85.32;29.38;;;;;;;;;;5030989;28;20052;-60
2021/01/02 07:18:54;;;;;;;86.90;29.70;;;;;;;;;;5048624;28;20844;-60
2021/01/02 07:21:36;;;;;;;84.78;29.42;;;;;;;;;;5043731;28;20040;-60
2021/01/02 07:24:34;;;;;;;86.25;28.35;;;;;;;;;;5039207;28;20561;-60
2021/01/02 07:27:01;;;;;;;80.35;27.13;;;;;;;;;;4994494;28;20033;-60
2021/01/02 07:29:28;;;;;;;83.05;29.17;;;;;;;;;;5030957;28;20042;-60
2021/01/02 07:32:03;;;;;;;82.32;27.30;;;;;;;;;;5032490;28;20052;-60
2021/01/02 07:34:29;;;;;;;77.82;28.95;;;;;;;;;;5037317;28;20117;-62
2021/01/02 07:36:55;;;;;;;81.88;28.98;;;;;;;;;;5033630;28;20045;-60
2021/01/02 07:39:21;;;;;;;78.50;29.23;;;;;;;;;;5039108;28;20586;-61
2021/01/02 07:41:51;;;;;;;85.85;29.70;;;;;;;;;;5041621;28;20048;-60
2021/01/02 07:44:20;;;;;;;93.03;31.95;;;;;;;;;;5035128;28;20040;-60
2021/01/02 07:46:46;;;;;;;83.88;28.27;;;;;;;;;;5035060;28;20045;-62
2021/01/02 07:49:16;;;;;;;79.97;28.95;;;;;;;;;;5033572;28;20606;-60
2021/01/02 07:51:46;;;;;;;80.00;29.80;;;;;;;;;;5033917;28;20054;-60
2021/01/02 07:54:12;;;;;;;89.07;31.17;;;;;;;;;;5035691;28;20167;-61
2021/01/02 07:56:41;;;;;;;93.40;29.83;;;;;;;;;;5037012;28;20048;-60
2021/01/02 07:59:19;;;;;;;78.22;28.33;;;;;;;;;;5044227;28;20042;-60
2021/01/02 08:01:49;;;;;;;81.82;29.67;;;;;;;;;;5043434;28;20408;-60
2021/01/02 08:04:15;;;;;;;85.63;30.55;;;;;;;;;;5047136;28;20036;-61
2021/01/02 08:06:46;;;;;;;87.28;30.38;;;;;;;;;;5023927;28;20528;-60
2021/01/02 08:09:12;;;;;;;95.63;31.52;;;;;;;;;;5038414;28;20033;-60
2021/01/02 08:11:39;;;;;;;83.00;30.67;;;;;;;;;;5036033;28;20047;-60
2021/01/02 08:14:05;;;;;;;85.43;30.63;;;;;;;;;;5042057;28;20386;-60
2021/01/02 08:16:31;;;;;;;86.95;29.95;;;;;;;;;;5023472;28;20029;-61
2021/01/02 08:19:05;;;;;;;90.00;31.55;;;;;;;;;;5034827;28;20555;-60
2021/01/02 08:21:38;;;;;;;91.55;31.45;;;;;;;;;;5042801;28;20115;-60
2021/01/02 08:24:12;;;;;;;91.05;31.95;;;;;;;;;;5039913;28;20127;-60
2021/01/02 08:26:38;;;;;;;88.75;31.25;;;;;;;;;;5046252;28;20052;-61
2021/01/02 08:29:04;;;;;;;83.18;29.83;;;;;;;;;;5043088;28;20183;-60
2021/01/02 08:31:31;;;;;;;75.55;28.83;;;;;;;;;;5043064;28;20505;-60
2021/01/02 08:33:58;;;;;;;91.93;30.63;;;;;;;;;;5045091;28;20062;-60
2021/01/02 08:36:24;;;;;;;97.28;30.52;;;;;;;;;;5040761;28;20664;-60
2021/01/02 08:38:56;;;;;;;81.85;30.05;;;;;;;;;;5048314;28;20035;-60
2021/01/02 08:41:23;;;;;;;87.30;29.27;;;;;;;;;;5023766;28;20029;-60
2021/01/02 08:43:50;;;;;;;79.65;28.77;;;;;;;;;;5041431;28;20045;-60
2021/01/02 08:46:22;;;;;;;80.88;29.25;;;;;;;;;;5047061;28;20062;-60
2021/01/02 08:48:48;;;;;;;76.70;28.50;;;;;;;;;;5049527;28;20037;-60
2021/01/02 08:51:27;;;;;;;82.60;28.52;;;;;;;;;;5042585;28;20596;-60
2021/01/02 08:53:53;;;;;;;83.05;29.40;;;;;;;;;;5038144;28;20033;-64
2021/01/02 08:56:23;;;;;;;72.13;27.63;;;;;;;;;;5043434;28;20457;-61
2021/01/02 08:58:49;;;;;;;77.82;27.30;;;;;;;;;;5042748;28;20040;-61
2021/01/02 09:01:15;;;;;;;83.20;27.33;;;;;;;;;;5042735;28;20029;-60
2021/01/02 09:03:41;;;;;;;76.95;26.98;;;;;;;;;;5042287;28;20037;-60
2021/01/02 09:06:21;;;;;;;76.53;26.67;;;;;;;;;;5042100;28;20037;-60
2021/01/02 09:09:07;;;;;;;78.95;27.77;;;;;;;;;;5042128;28;20053;-60
2021/01/02 09:11:51;;;;;;;78.13;28.38;;;;;;;;;;5038463;28;20615;-60
2021/01/02 09:14:17;;;;;;;73.85;26.63;;;;;;;;;;5043572;28;20545;-61
2021/01/02 09:16:59;;;;;;;80.45;27.27;;;;;;;;;;5044483;28;20440;-64
2021/01/02 09:19:25;;;;;;;77.40;26.13;;;;;;;;;;5044239;28;20066;-65
2021/01/02 09:21:51;;;;;;;80.00;28.20;;;;;;;;;;5041678;28;20033;-62
2021/01/02 09:24:21;;;;;;;76.93;27.27;;;;;;;;;;5040194;28;20052;-61
2021/01/02 09:26:48;;;;;;;79.13;26.88;;;;;;;;;;5040556;28;20169;-62
2021/01/02 09:29:15;;;;;;;84.70;27.20;;;;;;;;;;5036359;28;20037;-60
2021/01/02 09:31:41;;;;;;;81.78;26.95;;;;;;;;;;5042155;28;20107;-61
2021/01/02 09:34:07;;;;;;;78.38;26.90;;;;;;;;;;5034511;28;20051;-60
2021/01/02 09:36:33;;;;;;;69.10;26.23;;;;;;;;;;5037394;28;20028;-60
2021/01/02 09:38:59;;;;;;;74.47;27.60;;;;;;;;;;5029860;28;20024;-60
2021/01/02 09:41:26;;;;;;;76.68;26.77;;;;;;;;;;5045065;28;20132;-60
2021/01/02 09:43:55;;;;;;;84.35;28.83;;;;;;;;;;5040827;28;20040;-60
2021/01/02 09:46:22;;;;;;;83.25;27.45;;;;;;;;;;5035743;28;20374;-60
2021/01/02 09:48:49;;;;;;;92.53;29.67;;;;;;;;;;5052878;28;20726;-60
2021/01/02 09:51:16;;;;;;;83.45;28.98;;;;;;;;;;5049455;28;20618;-60
2021/01/02 09:53:42;;;;;;;83.10;29.60;;;;;;;;;;5048207;28;20033;-61
2021/01/02 09:56:08;;;;;;;93.03;30.45;;;;;;;;;;5041437;28;20105;-60
2021/01/02 09:58:34;;;;;;;91.22;29.92;;;;;;;;;;5052341;28;20123;-60
2021/01/02 10:01:00;;;;;;;90.40;29.08;;;;;;;;;;5049254;28;20503;-61
2021/01/02 10:03:26;;;;;;;90.13;29.33;;;;;;;;;;5044262;28;20041;-60
2021/01/02 10:05:52;;;;;;;88.30;28.42;;;;;;;;;;5041228;28;20034;-60
2021/01/02 10:08:18;;;;;;;95.00;30.30;;;;;;;;;;5055042;28;20032;-60
2021/01/02 10:10:44;;;;;;;80.05;28.48;;;;;;;;;;5047475;28;20041;-60
2021/01/02 10:13:10;;;;;;;84.93;28.42;;;;;;;;;;5046074;28;20841;-61
2021/01/02 10:15:36;;;;;;;86.07;28.52;;;;;;;;;;5047080;28;20495;-62
2021/01/02 10:18:03;;;;;;;88.63;30.23;;;;;;;;;;5049478;28;20480;-60
2021/01/02 10:20:29;;;;;;;79.47;28.77;;;;;;;;;;5040096;28;20167;-60
2021/01/02 10:22:55;;;;;;;81.10;27.65;;;;;;;;;;5053218;28;20600;-60
2021/01/02 10:25:21;;;;;;;77.90;28.10;;;;;;;;;;5048888;28;20028;-60
2021/01/02 10:27:47;;;;;;;76.70;28.58;;;;;;;;;;5054225;28;20056;-60
2021/01/02 10:30:14;;;;;;;80.68;29.45;;;;;;;;;;5054737;28;20032;-60
2021/01/02 10:32:40;;;;;;;76.18;28.17;;;;;;;;;;5054207;28;20039;-60
2021/01/02 10:35:08;;;;;;;74.55;27.70;;;;;;;;;;5044770;28;20044;-60
2021/01/02 10:37:34;;;;;;;72.53;27.92;;;;;;;;;;5040441;28;20898;-62
2021/01/02 10:40:00;;;;;;;68.97;26.92;;;;;;;;;;5046147;28;20493;-59
2021/01/02 10:42:30;;;;;;;67.82;27.90;;;;;;;;;;5045282;28;20041;-59
2021/01/02 10:44:57;;;;;;;75.32;25.50;;;;;;;;;;5037231;28;20037;-60
2021/01/02 10:47:24;;;;;;;69.28;25.30;;;;;;;;;;5048177;28;20045;-60
2021/01/02 10:49:50;;;;;;;67.63;26.90;;;;;;;;;;5041101;28;20044;-60
2021/01/02 10:52:18;;;;;;;69.88;26.13;;;;;;;;;;5049976;28;20082;-60
2021/01/02 10:54:44;;;;;;;65.07;25.88;;;;;;;;;;5052367;28;20070;-60
2021/01/02 10:57:10;;;;;;;60.97;24.63;;;;;;;;;;5045238;28;20036;-60
2021/01/02 10:59:36;;;;;;;60.03;24.88;;;;;;;;;;5041488;28;20041;-60
2021/01/02 11:02:02;;;;;;;63.10;24.85;;;;;;;;;;5042478;28;20444;-60
2021/01/02 11:04:29;;;;;;;61.75;24.75;;;;;;;;;;5041292;28;20040;-60
2021/01/02 11:06:55;;;;;;;66.38;25.67;;;;;;;;;;5047240;28;20040;-60
2021/01/02 11:09:23;;;;;;;60.10;25.33;;;;;;;;;;5047870;28;20090;-60
2021/01/02 11:11:50;;;;;;;61.10;26.15;;;;;;;;;;5041809;28;20040;-60
2021/01/02 11:14:17;;;;;;;62.65;24.27;;;;;;;;;;5017747;28;20059;-60
2021/01/02 11:16:44;;;;;;;70.80;26.90;;;;;;;;;;5010729;28;20423;-60
2021/01/02 11:19:14;;;;;;;66.30;25.75;;;;;;;;;;5047787;28;20040;-59
2021/01/02 11:21:40;;;;;;;69.25;24.67;;;;;;;;;;5043475;28;20156;-60
2021/01/02 11:24:07;;;;;;;64.20;23.20;;;;;;;;;;5049404;28;20123;-60
2021/01/02 11:26:33;;;;;;;62.30;25.75;;;;;;;;;;5055383;28;20047;-60
2021/01/02 11:28:59;;;;;;;62.15;23.88;;;;;;;;;;5055516;28;20569;-60
2021/01/02 11:31:32;;;;;;;64.32;25.75;;;;;;;;;;5054501;28;20055;-60
2021/01/02 11:33:58;;;;;;;58.63;23.85;;;;;;;;;;5047414;28;20075;-60
2021/01/02 11:36:25;;;;;;;56.55;23.83;;;;;;;;;;5057322;28;20025;-60
2021/01/02 11:38:51;;;;;;;63.78;24.85;;;;;;;;;;5058078;28;20118;-60
2021/01/02 11:41:18;;;;;;;55.85;23.55;;;;;;;;;;5056071;28;20060;-60
2021/01/02 11:43:45;;;;;;;60.10;22.85;;;;;;;;;;5054831;28;20071;-60
2021/01/02 11:46:11;;;;;;;63.05;24.15;;;;;;;;;;5056415;28;20032;-60
2021/01/02 11:48:40;;;;;;;58.90;23.67;;;;;;;;;;5056766;28;20071;-60
2021/01/02 11:51:11;;;;;;;56.67;24.20;;;;;;;;;;5049384;28;20040;-60
2021/01/02 11:53:37;;;;;;;53.38;22.58;;;;;;;;;;5034964;28;20111;-60
2021/01/02 11:56:03;;;;;;;59.05;24.20;;;;;;;;;;5051669;28;20413;-60
2021/01/02 11:58:29;;;;;;;52.00;23.02;;;;;;;;;;5055793;28;20044;-60
2021/01/02 12:00:55;;;;;;;54.55;22.40;;;;;;;;;;5056482;28;20036;-60
2021/01/02 12:03:21;;;;;;;54.42;22.63;;;;;;;;;;5056860;28;20114;-60
2021/01/02 12:05:47;;;;;;;53.25;22.77;;;;;;;;;;5052906;28;20052;-61
2021/01/02 12:08:13;;;;;;;51.55;22.13;;;;;;;;;;5052315;28;20041;-61
2021/01/02 12:10:39;;;;;;;50.38;22.42;;;;;;;;;;5055402;28;20041;-60
2021/01/02 12:13:05;;;;;;;57.67;24.55;;;;;;;;;;5053866;28;21153;-60
2021/01/02 12:15:31;;;;;;;53.13;22.70;;;;;;;;;;5051417;28;20127;-62
2021/01/02 12:17:57;;;;;;;57.10;22.67;;;;;;;;;;5053459;28;20475;-61
2021/01/02 12:20:23;;;;;;;50.75;22.30;;;;;;;;;;5052544;28;20029;-60
2021/01/02 12:22:49;;;;;;;51.25;22.05;;;;;;;;;;5057893;28;20044;-60
2021/01/02 12:25:15;;;;;;;47.88;20.95;;;;;;;;;;5058466;28;20025;-60
2021/01/02 12:27:41;;;;;;;46.88;21.55;;;;;;;;;;5059426;28;20675;-61
2021/01/02 12:30:08;;;;;;;47.53;20.92;;;;;;;;;;5054642;28;20060;-60
2021/01/02 12:32:34;;;;;;;46.45;21.30;;;;;;;;;;5060621;28;20693;-60
2021/01/02 12:35:00;;;;;;;48.28;21.75;;;;;;;;;;5057823;28;20048;-60
2021/01/02 12:37:26;;;;;;;50.13;22.83;;;;;;;;;;5061881;28;20043;-60
2021/01/02 12:39:52;;;;;;;48.38;22.05;;;;;;;;;;5057978;28;20578;-61
2021/01/02 12:42:18;;;;;;;64.13;25.40;;;;;;;;;;5057460;28;20060;-61
2021/01/02 12:44:49;;;;;;;62.80;26.27;;;;;;;;;;5053874;28;20052;-60
2021/01/02 12:47:16;;;;;;;58.70;25.50;;;;;;;;;;5053299;28;20105;-60
2021/01/02 12:49:43;;;;;;;70.97;28.20;;;;;;;;;;5055938;28;20123;-60
2021/01/02 12:52:09;;;;;;;62.10;25.73;;;;;;;;;;5054874;28;20487;-60
2021/01/02 12:54:35;;;;;;;63.85;27.20;;;;;;;;;;5048910;28;20083;-61
2021/01/02 12:57:01;;;;;;;62.70;26.15;;;;;;;;;;5055668;28;20055;-62
2021/01/02 12:59:32;;;;;;;76.45;29.70;;;;;;;;;;5038140;28;20036;-60
2021/01/02 13:01:58;;;;;;;61.60;27.50;;;;;;;;;;5032335;22;20502;-62
2021/01/02 13:04:25;;;;;;;65.90;28.55;;;;;;;;;;4956856;28;20043;-60
2021/01/02 13:06:58;;;;;;;69.97;29.30;;;;;;;;;;4965343;28;21971;-61
2021/01/02 13:09:25;;;;;;;69.15;28.58;;;;;;;;;;4946670;28;20031;-61
2021/01/02 13:11:55;;;;;;;70.05;30.17;;;;;;;;;;4971032;28;20162;-63
2021/01/02 13:14:25;;;;;;;64.75;27.75;;;;;;;;;;5052287;28;20036;-60
2021/01/02 13:16:52;;;;;;;64.30;28.25;;;;;;;;;;5049793;28;20032;-63
2021/01/02 13:19:18;;;;;;;66.65;28.08;;;;;;;;;;5049543;28;20045;-61
2021/01/02 13:21:45;;;;;;;60.75;26.05;;;;;;;;;;5053989;28;20039;-60
2021/01/02 13:24:12;;;;;;;63.53;27.52;;;;;;;;;;5028367;28;20032;-61
2021/01/02 13:26:38;;;;;;;58.78;26.17;;;;;;;;;;5036453;28;20032;-61
2021/01/02 13:29:04;;;;;;;61.08;27.08;;;;;;;;;;5053882;28;20043;-62
2021/01/02 13:31:30;;;;;;;65.47;26.85;;;;;;;;;;5053721;28;20541;-61
2021/01/02 13:33:56;;;;;;;68.43;28.33;;;;;;;;;;5051275;28;20045;-61
2021/01/02 13:36:21;;;;;;;67.85;26.95;;;;;;;;;;5035167;28;21396;-62
2021/01/02 13:38:47;;;;;;;60.85;25.67;;;;;;;;;;5042490;28;20661;-61
2021/01/02 13:41:13;;;;;;;57.08;26.17;;;;;;;;;;5053785;28;20127;-61
2021/01/02 13:43:42;;;;;;;59.17;26.75;;;;;;;;;;5057997;28;20310;-61
2021/01/02 13:46:08;;;;;;;66.95;27.63;;;;;;;;;;5035675;28;20040;-60
2021/01/02 13:48:34;;;;;;;70.68;28.15;;;;;;;;;;5057321;28;20048;-60
2021/01/02 13:51:00;;;;;;;58.35;26.08;;;;;;;;;;5050827;28;20799;-61
2021/01/02 13:53:26;;;;;;;53.28;26.13;;;;;;;;;;5052545;28;20044;-60
2021/01/02 13:55:52;;;;;;;54.58;24.75;;;;;;;;;;5051528;28;20040;-61
2021/01/02 13:58:18;;;;;;;56.72;24.48;;;;;;;;;;5054756;28;20042;-61
2021/01/02 14:00:46;;;;;;;59.78;26.52;;;;;;;;;;5046516;28;20028;-61
2021/01/02 14:03:12;;;;;;;65.93;26.55;;;;;;;;;;5048212;28;20115;-60
2021/01/02 14:05:38;;;;;;;59.20;24.75;;;;;;;;;;5049484;28;20032;-60
2021/01/02 14:08:07;;;;;;;62.60;26.00;;;;;;;;;;5043475;28;20028;-61
2021/01/02 14:10:33;;;;;;;59.38;25.65;;;;;;;;;;5053829;28;20033;-60
2021/01/02 14:12:59;;;;;;;58.03;25.80;;;;;;;;;;5038377;28;20032;-60
2021/01/02 14:15:24;;;;;;;58.25;25.38;;;;;;;;;;5061078;28;20110;-67
2021/01/02 14:17:50;;;;;;;57.05;25.17;;;;;;;;;;5055136;28;20051;-61
2021/01/02 14:20:16;;;;;;;54.88;24.98;;;;;;;;;;5061421;28;20408;-60
2021/01/02 14:22:43;;;;;;;58.72;24.55;;;;;;;;;;5054873;28;20036;-61
2021/01/02 14:25:10;;;;;;;57.70;25.45;;;;;;;;;;5051234;28;20642;-60